Time;durP1;ratioP1;P1;durP2;ratioP2;P2;SDS_P1;SDS_P2;PMS_P1;PMS_P2;Temp;Humidity;BMP_temperature;BMP_pressure;BME280_temperature;BME280_humidity;BME280_pressure;Samples;Min_cycle;Max_cycle;Signal;HPM_P1;HPM_P2
2021/10/29 00:00:21;;;;;;;61.50;38.10;;;;;;;;;;5008115;28;20030;-71
2021/10/29 00:02:47;;;;;;;54.08;34.22;;;;;;;;;;5008059;28;20048;-71
2021/10/29 00:05:13;;;;;;;86.82;48.42;;;;;;;;;;5011857;28;20471;-71
2021/10/29 00:07:39;;;;;;;205.90;110.90;;;;;;;;;;5011049;28;20030;-71
2021/10/29 00:10:06;;;;;;;174.40;99.97;;;;;;;;;;5007259;28;20037;-71
2021/10/29 00:12:32;;;;;;;96.13;54.97;;;;;;;;;;5011012;28;20108;-71
2021/10/29 00:14:58;;;;;;;62.00;38.97;;;;;;;;;;5011129;28;20045;-71
2021/10/29 00:17:24;;;;;;;53.25;31.33;;;;;;;;;;5007007;28;20040;-71
2021/10/29 00:19:50;;;;;;;57.20;31.25;;;;;;;;;;5006528;28;20030;-71
2021/10/29 00:22:16;;;;;;;52.90;29.50;;;;;;;;;;5007965;28;20383;-71
2021/10/29 00:24:42;;;;;;;186.43;64.20;;;;;;;;;;5011299;28;20049;-71
2021/10/29 00:27:09;;;;;;;71.65;34.97;;;;;;;;;;5007457;28;20030;-71
2021/10/29 00:29:35;;;;;;;67.45;35.05;;;;;;;;;;5006221;28;20034;-71
2021/10/29 00:32:01;;;;;;;52.97;28.90;;;;;;;;;;5007556;28;20040;-71
2021/10/29 00:34:27;;;;;;;74.20;39.33;;;;;;;;;;5008267;28;20030;-71
2021/10/29 00:36:53;;;;;;;94.82;44.67;;;;;;;;;;5007468;28;20036;-71
2021/10/29 00:39:20;;;;;;;50.70;27.75;;;;;;;;;;5012482;28;20363;-71
2021/10/29 00:41:46;;;;;;;52.75;29.70;;;;;;;;;;5007890;28;20026;-71
2021/10/29 00:44:12;;;;;;;40.55;25.60;;;;;;;;;;5009916;28;20044;-71
2021/10/29 00:46:38;;;;;;;51.10;28.98;;;;;;;;;;5009319;28;20034;-71
2021/10/29 00:49:04;;;;;;;42.80;24.38;;;;;;;;;;5007291;28;20038;-71
2021/10/29 00:51:30;;;;;;;44.45;26.48;;;;;;;;;;5009892;28;20044;-71
2021/10/29 00:53:56;;;;;;;62.97;34.25;;;;;;;;;;5006808;28;20038;-71
2021/10/29 00:56:22;;;;;;;45.15;27.48;;;;;;;;;;5008459;28;20026;-71
2021/10/29 00:58:48;;;;;;;40.42;25.13;;;;;;;;;;5006688;28;20061;-71
2021/10/29 01:01:15;;;;;;;32.50;22.92;;;;;;;;;;5006736;28;20772;-71
2021/10/29 01:03:42;;;;;;;34.67;23.42;;;;;;;;;;5007170;28;20038;-71
2021/10/29 01:06:08;;;;;;;27.80;19.70;;;;;;;;;;5012064;28;20044;-71
2021/10/29 01:08:36;;;;;;;35.53;20.77;;;;;;;;;;4988526;28;20033;-71
2021/10/29 01:11:02;;;;;;;56.65;30.17;;;;;;;;;;5006011;28;20037;-71
2021/10/29 01:13:28;;;;;;;85.28;35.78;;;;;;;;;;5006060;28;20034;-71
2021/10/29 01:15:55;;;;;;;46.85;25.48;;;;;;;;;;5006503;28;20192;-71
2021/10/29 01:18:21;;;;;;;33.35;19.20;;;;;;;;;;5006036;28;20444;-71
2021/10/29 01:20:47;;;;;;;62.67;33.28;;;;;;;;;;5006401;28;20041;-71
2021/10/29 01:23:13;;;;;;;45.70;26.30;;;;;;;;;;5012678;28;20033;-71
2021/10/29 01:25:39;;;;;;;33.17;19.70;;;;;;;;;;5007026;28;20038;-71
2021/10/29 01:28:12;;;;;;;36.70;18.05;;;;;;;;;;5010998;28;20033;-71
2021/10/29 01:30:38;;;;;;;23.35;15.02;;;;;;;;;;5007264;28;20034;-70
2021/10/29 01:33:04;;;;;;;26.95;15.25;;;;;;;;;;5009352;28;20026;-71
2021/10/29 01:35:30;;;;;;;22.88;14.02;;;;;;;;;;5006620;28;20137;-71
2021/10/29 01:37:56;;;;;;;23.40;15.48;;;;;;;;;;5005533;28;20451;-71
2021/10/29 01:40:23;;;;;;;37.65;19.20;;;;;;;;;;5013070;28;20045;-71
2021/10/29 01:42:49;;;;;;;36.33;17.88;;;;;;;;;;5006102;28;20037;-71
2021/10/29 01:45:16;;;;;;;20.15;11.65;;;;;;;;;;5005681;28;20822;-71
2021/10/29 01:47:42;;;;;;;16.90;8.60;;;;;;;;;;5006930;28;20038;-71
2021/10/29 01:50:08;;;;;;;24.13;14.25;;;;;;;;;;5005450;28;20049;-70
2021/10/29 01:52:35;;;;;;;37.50;15.05;;;;;;;;;;5009561;28;20193;-71
2021/10/29 01:55:01;;;;;;;35.72;19.08;;;;;;;;;;5012164;28;20349;-71
2021/10/29 01:57:27;;;;;;;28.75;14.70;;;;;;;;;;5010006;28;20045;-71
2021/10/29 01:59:53;;;;;;;16.58;9.40;;;;;;;;;;5001296;28;20041;-71
2021/10/29 02:02:19;;;;;;;14.30;8.60;;;;;;;;;;5010233;28;20061;-71
2021/10/29 02:04:45;;;;;;;19.42;9.50;;;;;;;;;;5011359;28;20084;-71
2021/10/29 02:07:11;;;;;;;19.45;11.48;;;;;;;;;;5023148;28;20112;-71
2021/10/29 02:09:37;;;;;;;24.48;13.20;;;;;;;;;;5009727;28;20046;-71
2021/10/29 02:12:04;;;;;;;23.40;13.77;;;;;;;;;;5009716;28;20506;-71
2021/10/29 02:14:30;;;;;;;22.35;12.35;;;;;;;;;;5009530;28;20038;-71
2021/10/29 02:16:56;;;;;;;17.63;9.05;;;;;;;;;;5012278;28;20060;-71
2021/10/29 02:19:22;;;;;;;24.10;10.52;;;;;;;;;;5022072;28;20041;-71
2021/10/29 02:21:48;;;;;;;22.10;10.25;;;;;;;;;;5008706;28;20032;-71
2021/10/29 02:24:14;;;;;;;30.77;13.95;;;;;;;;;;5010010;28;20034;-71
2021/10/29 02:26:40;;;;;;;27.98;13.15;;;;;;;;;;5009401;28;20044;-71
2021/10/29 02:29:07;;;;;;;20.40;11.52;;;;;;;;;;5009249;28;20164;-71
2021/10/29 02:31:33;;;;;;;22.90;12.73;;;;;;;;;;5009483;28;20097;-71
2021/10/29 02:33:59;;;;;;;28.95;13.82;;;;;;;;;;5011444;28;20113;-71
2021/10/29 02:36:25;;;;;;;24.90;13.02;;;;;;;;;;5009647;28;20613;-71
2021/10/29 02:38:51;;;;;;;18.45;12.20;;;;;;;;;;5009831;28;20117;-71
2021/10/29 02:41:17;;;;;;;21.92;12.57;;;;;;;;;;5009888;28;20050;-71
2021/10/29 02:43:45;;;;;;;21.20;11.68;;;;;;;;;;5016697;28;20037;-71
2021/10/29 02:46:11;;;;;;;22.20;13.05;;;;;;;;;;5009621;28;20117;-71
2021/10/29 02:48:37;;;;;;;21.90;14.25;;;;;;;;;;5008384;28;20033;-71
2021/10/29 02:51:03;;;;;;;22.40;12.93;;;;;;;;;;5009375;28;20034;-71
2021/10/29 02:53:34;;;;;;;23.30;12.95;;;;;;;;;;5008193;28;20029;-71
2021/10/29 02:56:00;;;;;;;25.38;14.63;;;;;;;;;;5009704;28;20475;-71
2021/10/29 02:58:28;;;;;;;27.13;15.35;;;;;;;;;;5010562;28;20505;-71
2021/10/29 03:00:56;;;;;;;22.30;13.02;;;;;;;;;;5001002;28;20112;-71
2021/10/29 03:03:22;;;;;;;24.58;14.52;;;;;;;;;;5006757;28;20033;-71
2021/10/29 03:05:48;;;;;;;23.85;12.98;;;;;;;;;;4999283;28;20076;-71
2021/10/29 03:08:14;;;;;;;37.50;20.25;;;;;;;;;;5008739;28;20052;-71
2021/10/29 03:10:40;;;;;;;22.52;14.35;;;;;;;;;;5008516;28;20034;-71
2021/10/29 03:13:06;;;;;;;21.55;13.68;;;;;;;;;;5009102;28;20648;-71
2021/10/29 03:15:32;;;;;;;33.17;16.92;;;;;;;;;;5015869;28;20030;-71
2021/10/29 03:17:59;;;;;;;24.38;16.85;;;;;;;;;;5008710;28;20050;-71
2021/10/29 03:20:25;;;;;;;24.30;15.45;;;;;;;;;;5013685;28;20113;-71
2021/10/29 03:22:51;;;;;;;23.27;14.68;;;;;;;;;;5008923;28;20568;-71
2021/10/29 03:25:17;;;;;;;27.25;15.85;;;;;;;;;;5011952;28;20030;-71
2021/10/29 03:27:43;;;;;;;27.60;14.70;;;;;;;;;;5009112;28;20033;-71
2021/10/29 03:30:10;;;;;;;24.50;13.30;;;;;;;;;;5010364;28;20026;-71
2021/10/29 03:32:37;;;;;;;24.13;13.40;;;;;;;;;;5008818;28;20439;-71
2021/10/29 03:35:04;;;;;;;20.25;11.55;;;;;;;;;;5008537;28;20144;-71
2021/10/29 03:41:10;;;;;;;19.20;12.68;;;;;;;;;;5015220;28;20050;-71
2021/10/29 03:45:51;;;;;;;27.45;17.73;;;;;;;;;;5013456;28;20369;-71
2021/10/29 03:48:20;;;;;;;22.23;13.60;;;;;;;;;;5007931;28;20029;-71
2021/10/29 03:51:00;;;;;;;20.42;11.30;;;;;;;;;;5010949;28;20064;-71
2021/10/29 03:55:58;;;;;;;23.90;12.98;;;;;;;;;;5005919;28;20116;-71
2021/10/29 03:58:24;;;;;;;20.17;13.60;;;;;;;;;;5007920;28;20435;-71
2021/10/29 04:00:50;;;;;;;20.20;12.23;;;;;;;;;;5008608;28;20104;-71
2021/10/29 04:03:16;;;;;;;19.30;12.10;;;;;;;;;;5008438;28;20037;-71
2021/10/29 04:05:42;;;;;;;21.88;12.30;;;;;;;;;;5007200;28;20026;-71
2021/10/29 04:08:10;;;;;;;22.92;12.82;;;;;;;;;;5008107;28;20045;-71
2021/10/29 04:10:40;;;;;;;20.63;12.38;;;;;;;;;;5008883;28;20025;-71
2021/10/29 04:13:10;;;;;;;20.45;11.70;;;;;;;;;;5003846;28;20030;-71
2021/10/29 04:15:37;;;;;;;20.92;10.90;;;;;;;;;;5016849;28;20145;-71
2021/10/29 04:18:04;;;;;;;20.70;10.63;;;;;;;;;;5014427;28;20750;-71
2021/10/29 04:20:30;;;;;;;19.35;11.52;;;;;;;;;;5014053;28;20116;-71
2021/10/29 04:22:56;;;;;;;17.58;8.63;;;;;;;;;;5026638;28;20135;-71
2021/10/29 04:25:22;;;;;;;14.30;8.10;;;;;;;;;;5012029;28;20034;-71
2021/10/29 04:27:54;;;;;;;13.63;7.50;;;;;;;;;;5010077;28;20056;-71
2021/10/29 04:30:22;;;;;;;17.80;9.02;;;;;;;;;;5009140;28;20105;-71
2021/10/29 04:32:48;;;;;;;18.13;9.70;;;;;;;;;;5015025;28;20069;-71
2021/10/29 04:35:14;;;;;;;23.35;13.50;;;;;;;;;;5008971;28;20734;-71
2021/10/29 04:37:41;;;;;;;27.30;14.55;;;;;;;;;;5019398;28;20021;-71
2021/10/29 04:40:07;;;;;;;22.48;13.50;;;;;;;;;;5017407;28;20109;-71
2021/10/29 04:42:33;;;;;;;23.55;15.15;;;;;;;;;;5009487;28;20112;-71
2021/10/29 04:44:59;;;;;;;24.50;14.77;;;;;;;;;;5015120;28;20415;-71
2021/10/29 04:47:25;;;;;;;22.38;14.27;;;;;;;;;;5010145;28;20045;-71
2021/10/29 04:49:51;;;;;;;20.55;12.50;;;;;;;;;;5007052;28;20079;-71
2021/10/29 04:52:17;;;;;;;20.33;12.52;;;;;;;;;;5006883;28;20034;-71
2021/10/29 04:54:43;;;;;;;22.33;13.85;;;;;;;;;;5014149;28;20099;-71
2021/10/29 04:57:09;;;;;;;17.15;11.65;;;;;;;;;;5006192;28;20451;-71
2021/10/29 04:59:35;;;;;;;16.50;12.45;;;;;;;;;;5010177;28;20049;-71
2021/10/29 05:02:02;;;;;;;17.80;12.10;;;;;;;;;;5012608;28;20033;-71
2021/10/29 05:04:28;;;;;;;20.95;13.05;;;;;;;;;;5007528;28;20057;-72
2021/10/29 05:06:54;;;;;;;15.65;11.32;;;;;;;;;;5006439;28;20072;-71
2021/10/29 05:09:20;;;;;;;16.77;11.40;;;;;;;;;;5010577;28;20049;-71
2021/10/29 05:11:46;;;;;;;16.77;11.57;;;;;;;;;;5008437;28;20778;-71
2021/10/29 05:14:12;;;;;;;20.65;11.95;;;;;;;;;;5005572;28;20026;-71
2021/10/29 05:16:38;;;;;;;16.33;10.98;;;;;;;;;;5007052;28;20750;-71
2021/10/29 05:19:05;;;;;;;19.42;12.23;;;;;;;;;;5006222;28;20040;-71
2021/10/29 05:21:31;;;;;;;21.00;12.77;;;;;;;;;;5010014;28;20033;-71
2021/10/29 05:23:57;;;;;;;21.85;13.13;;;;;;;;;;5005571;28;20034;-71
2021/10/29 05:26:23;;;;;;;21.48;12.20;;;;;;;;;;5004099;28;20617;-71
2021/10/29 05:28:49;;;;;;;21.83;15.25;;;;;;;;;;5005692;28;20117;-71
2021/10/29 05:31:16;;;;;;;20.17;12.65;;;;;;;;;;5005809;28;20045;-71
2021/10/29 05:33:42;;;;;;;20.30;12.30;;;;;;;;;;5006837;28;20058;-71
2021/10/29 05:36:08;;;;;;;18.48;13.02;;;;;;;;;;5004674;28;20022;-71
2021/10/29 05:38:35;;;;;;;21.65;14.35;;;;;;;;;;5006479;28;20034;-71
2021/10/29 05:41:01;;;;;;;21.05;13.45;;;;;;;;;;5009338;28;20037;-71
2021/10/29 05:43:27;;;;;;;20.35;13.35;;;;;;;;;;5006589;28;20038;-71
2021/10/29 05:45:53;;;;;;;16.15;11.98;;;;;;;;;;5006865;28;20038;-71
2021/10/29 05:48:19;;;;;;;19.23;11.90;;;;;;;;;;5005780;28;20554;-71
2021/10/29 05:50:48;;;;;;;20.70;13.02;;;;;;;;;;5008774;28;20029;-71
2021/10/29 05:53:23;;;;;;;17.48;12.10;;;;;;;;;;5014967;28;20030;-71
2021/10/29 05:55:49;;;;;;;20.35;13.07;;;;;;;;;;5013821;28;20026;-72
2021/10/29 05:58:15;;;;;;;20.00;11.95;;;;;;;;;;5008586;28;20095;-71
2021/10/29 06:00:41;;;;;;;18.48;12.73;;;;;;;;;;5006473;28;20667;-71
2021/10/29 06:03:09;;;;;;;18.95;12.32;;;;;;;;;;5005346;28;20434;-71
2021/10/29 06:05:35;;;;;;;18.30;11.68;;;;;;;;;;5010097;28;20869;-72
2021/10/29 06:08:01;;;;;;;22.83;13.55;;;;;;;;;;5005318;28;20033;-71
2021/10/29 06:10:28;;;;;;;23.10;12.75;;;;;;;;;;5009006;28;20029;-71
2021/10/29 06:12:54;;;;;;;19.52;11.48;;;;;;;;;;4997271;28;20061;-71
2021/10/29 06:15:20;;;;;;;22.08;12.88;;;;;;;;;;5001841;28;20165;-71
2021/10/29 06:17:46;;;;;;;23.13;13.55;;;;;;;;;;5005572;28;20840;-71
2021/10/29 06:20:13;;;;;;;22.80;12.88;;;;;;;;;;5004726;28;20042;-71
2021/10/29 06:22:43;;;;;;;28.48;15.45;;;;;;;;;;5006862;28;20045;-71
2021/10/29 06:25:18;;;;;;;21.63;11.98;;;;;;;;;;5005348;28;20132;-71
2021/10/29 06:30:30;;;;;;;20.58;13.27;;;;;;;;;;5002104;28;20134;-71
2021/10/29 06:32:56;;;;;;;24.98;14.25;;;;;;;;;;5007049;28;20517;-71
2021/10/29 06:35:22;;;;;;;29.02;18.02;;;;;;;;;;5005185;28;20063;-71
2021/10/29 06:37:49;;;;;;;29.83;18.80;;;;;;;;;;5005998;28;20073;-71
2021/10/29 06:40:16;;;;;;;27.67;18.92;;;;;;;;;;5008616;28;20291;-71
2021/10/29 06:42:47;;;;;;;30.23;19.52;;;;;;;;;;5009295;28;20033;-71
2021/10/29 07:01:19;;;;;;;35.72;17.35;;;;;;;;;;5002252;28;20154;-71
2021/10/29 07:42:17;;;;;;;32.95;17.60;;;;;;;;;;5007763;28;20076;-72
2021/10/29 07:44:43;;;;;;;28.15;17.27;;;;;;;;;;5006987;28;20117;-71
2021/10/29 07:47:09;;;;;;;32.22;18.67;;;;;;;;;;5007231;28;20018;-72
2021/10/29 07:49:35;;;;;;;32.65;17.02;;;;;;;;;;5005939;28;20042;-71
2021/10/29 07:52:01;;;;;;;30.23;16.35;;;;;;;;;;5007317;28;20026;-72
2021/10/29 07:54:28;;;;;;;30.83;17.00;;;;;;;;;;5009471;28;20635;-71
2021/10/29 07:56:54;;;;;;;25.00;14.95;;;;;;;;;;5010267;28;20470;-71
2021/10/29 07:59:21;;;;;;;27.08;16.00;;;;;;;;;;5002582;28;20422;-71
2021/10/29 08:01:48;;;;;;;31.23;17.65;;;;;;;;;;5004420;28;20029;-71
2021/10/29 08:04:15;;;;;;;27.65;15.85;;;;;;;;;;5007222;28;20042;-71
2021/10/29 08:06:41;;;;;;;27.85;16.13;;;;;;;;;;5007322;28;20038;-72
2021/10/29 08:09:08;;;;;;;27.25;15.55;;;;;;;;;;5005758;28;20095;-71
2021/10/29 08:11:34;;;;;;;34.47;16.52;;;;;;;;;;5006669;28;20049;-72
2021/10/29 08:14:00;;;;;;;36.95;19.23;;;;;;;;;;5002925;28;20473;-72
2021/10/29 08:16:26;;;;;;;29.33;17.00;;;;;;;;;;5007001;28;20026;-71
2021/10/29 08:18:52;;;;;;;31.00;16.88;;;;;;;;;;5027550;23;20404;-72
2021/10/29 08:21:19;;;;;;;30.88;16.80;;;;;;;;;;5007791;28;20069;-71
2021/10/29 08:23:45;;;;;;;26.02;15.00;;;;;;;;;;5008384;28;20041;-72
2021/10/29 08:26:11;;;;;;;26.05;13.68;;;;;;;;;;5006339;28;20030;-71
2021/10/29 08:28:38;;;;;;;26.00;14.48;;;;;;;;;;5005138;28;20133;-71
2021/10/29 08:31:04;;;;;;;24.45;14.18;;;;;;;;;;5006926;28;20074;-72
2021/10/29 08:33:30;;;;;;;29.55;14.15;;;;;;;;;;5012578;28;20075;-71
2021/10/29 08:35:56;;;;;;;25.58;14.10;;;;;;;;;;5008404;28;20105;-71
2021/10/29 08:38:24;;;;;;;27.85;12.88;;;;;;;;;;5009542;28;20036;-71
2021/10/29 08:40:50;;;;;;;24.85;14.48;;;;;;;;;;5002752;28;20621;-72
2021/10/29 08:43:17;;;;;;;25.10;13.80;;;;;;;;;;5011805;28;20520;-71
2021/10/29 08:45:43;;;;;;;24.67;12.73;;;;;;;;;;5003313;28;20032;-72
2021/10/29 08:48:10;;;;;;;22.83;11.60;;;;;;;;;;5001806;28;20492;-71
2021/10/29 08:50:36;;;;;;;21.45;10.93;;;;;;;;;;5013616;28;20030;-72
2021/10/29 08:53:03;;;;;;;17.20;9.73;;;;;;;;;;5007811;28;20046;-72
2021/10/29 08:55:32;;;;;;;17.70;9.40;;;;;;;;;;5017229;28;20025;-72
2021/10/29 08:58:01;;;;;;;17.63;9.95;;;;;;;;;;5009533;28;20056;-71
2021/10/29 09:00:32;;;;;;;17.30;9.00;;;;;;;;;;5007504;28;20022;-72
2021/10/29 09:03:12;;;;;;;20.90;9.43;;;;;;;;;;5009311;28;20038;-71
2021/10/29 09:05:47;;;;;;;16.50;8.88;;;;;;;;;;5012604;28;20800;-72
2021/10/29 09:32:44;;;;;;;15.40;8.27;;;;;;;;;;5000734;28;20387;-71
2021/10/29 09:35:12;;;;;;;15.20;7.00;;;;;;;;;;5004404;28;20037;-71
2021/10/29 09:37:53;;;;;;;15.75;5.80;;;;;;;;;;5013681;28;20044;-72
2021/10/29 09:40:21;;;;;;;16.90;8.07;;;;;;;;;;5004064;28;20079;-72
2021/10/29 09:42:49;;;;;;;16.48;8.15;;;;;;;;;;5007447;28;20046;-72
2021/10/29 09:45:33;;;;;;;12.93;7.57;;;;;;;;;;5003468;28;20021;-72
2021/10/29 09:48:16;;;;;;;19.23;8.00;;;;;;;;;;5011052;28;20302;-71
2021/10/29 09:51:08;;;;;;;15.60;7.68;;;;;;;;;;5010116;28;20037;-72
2021/10/29 09:53:48;;;;;;;11.85;6.35;;;;;;;;;;4997224;28;20042;-72
2021/10/29 09:56:22;;;;;;;12.40;7.38;;;;;;;;;;4998972;28;20450;-72
2021/10/29 09:58:52;;;;;;;16.80;6.65;;;;;;;;;;5013267;28;20064;-71
2021/10/29 10:01:22;;;;;;;17.08;7.50;;;;;;;;;;5008362;28;20033;-71
2021/10/29 10:03:50;;;;;;;16.63;7.03;;;;;;;;;;5004011;28;20087;-72
2021/10/29 10:06:17;;;;;;;13.05;6.65;;;;;;;;;;5001514;28;20083;-72
2021/10/29 10:08:44;;;;;;;10.82;5.53;;;;;;;;;;5004953;28;20033;-71
2021/10/29 10:11:11;;;;;;;13.27;5.57;;;;;;;;;;5004038;28;20042;-71
2021/10/29 10:13:40;;;;;;;16.52;6.65;;;;;;;;;;5003363;28;20038;-71
2021/10/29 10:16:06;;;;;;;9.55;4.93;;;;;;;;;;5003822;28;20023;-72
2021/10/29 10:18:33;;;;;;;8.77;5.32;;;;;;;;;;5014741;28;20104;-72
2021/10/29 10:21:01;;;;;;;10.52;4.32;;;;;;;;;;4976802;28;20022;-72
2021/10/29 10:23:36;;;;;;;11.68;5.90;;;;;;;;;;5003531;28;20111;-72
2021/10/29 10:42:52;;;;;;;10.48;5.57;;;;;;;;;;5004136;28;20179;-72
2021/10/29 10:45:34;;;;;;;11.52;5.07;;;;;;;;;;5002623;28;20044;-72
2021/10/29 10:48:02;;;;;;;13.23;5.25;;;;;;;;;;5002397;28;20034;-72
2021/10/29 10:50:33;;;;;;;13.32;4.85;;;;;;;;;;5014367;28;20033;-72
2021/10/29 10:53:04;;;;;;;10.60;5.32;;;;;;;;;;5007074;28;20404;-71
2021/10/29 10:55:52;;;;;;;11.70;5.00;;;;;;;;;;5004750;28;20125;-71
2021/10/29 11:01:01;;;;;;;13.27;5.40;;;;;;;;;;5013204;28;20033;-71
2021/10/29 11:06:58;;;;;;;10.38;6.40;;;;;;;;;;5001059;28;20042;-71
2021/10/29 11:09:58;;;;;;;16.00;5.35;;;;;;;;;;5007541;28;20083;-72
2021/10/29 11:12:25;;;;;;;11.23;5.57;;;;;;;;;;5008912;28;20049;-72
2021/10/29 11:15:07;;;;;;;13.18;5.88;;;;;;;;;;5007733;28;20710;-72
2021/10/29 11:18:00;;;;;;;13.95;5.97;;;;;;;;;;5003679;28;20706;-72
2021/10/29 11:23:08;;;;;;;9.00;5.07;;;;;;;;;;5002936;28;20047;-72
2021/10/29 11:25:53;;;;;;;22.30;7.53;;;;;;;;;;5009462;28;20041;-72
2021/10/29 11:28:26;;;;;;;10.15;4.95;;;;;;;;;;5012765;28;20033;-72
2021/10/29 11:30:56;;;;;;;11.18;4.97;;;;;;;;;;5007645;28;20033;-71
2021/10/29 11:33:22;;;;;;;9.40;5.38;;;;;;;;;;5004621;28;20038;-72
2021/10/29 11:35:58;;;;;;;13.60;6.25;;;;;;;;;;5002191;28;20052;-72
2021/10/29 11:38:25;;;;;;;12.23;6.03;;;;;;;;;;5010850;28;20033;-72
2021/10/29 11:40:52;;;;;;;15.73;6.57;;;;;;;;;;5008786;28;20029;-71
2021/10/29 11:43:25;;;;;;;17.60;6.10;;;;;;;;;;5022744;28;20348;-72
2021/10/29 11:45:51;;;;;;;11.15;5.47;;;;;;;;;;5007797;28;20041;-72
2021/10/29 11:48:17;;;;;;;14.65;5.30;;;;;;;;;;5008158;28;20080;-72
2021/10/29 11:50:43;;;;;;;14.35;5.90;;;;;;;;;;5001477;28;20053;-72
2021/10/29 11:53:10;;;;;;;12.30;5.07;;;;;;;;;;4995623;28;20544;-71
2021/10/29 11:55:48;;;;;;;10.45;5.20;;;;;;;;;;4985620;28;20057;-72
2021/10/29 12:08:42;;;;;;;11.85;5.72;;;;;;;;;;5001129;28;20052;-71
2021/10/29 12:11:09;;;;;;;10.13;5.70;;;;;;;;;;5004244;28;20026;-72
2021/10/29 12:13:36;;;;;;;16.20;6.40;;;;;;;;;;5000946;28;20455;-72
2021/10/29 12:16:02;;;;;;;13.02;5.93;;;;;;;;;;5004372;28;20033;-72
2021/10/29 12:18:37;;;;;;;11.38;5.68;;;;;;;;;;4999927;28;20157;-71
2021/10/29 12:21:03;;;;;;;18.35;5.60;;;;;;;;;;4996358;28;20431;-72
2021/10/29 12:23:30;;;;;;;14.80;5.10;;;;;;;;;;5002807;28;20037;-72
2021/10/29 12:26:02;;;;;;;12.13;4.78;;;;;;;;;;4996974;28;20015;-72
2021/10/29 12:28:38;;;;;;;9.55;4.35;;;;;;;;;;5000063;28;20030;-72
2021/10/29 13:01:32;;;;;;;10.13;5.57;;;;;;;;;;5000580;28;20061;-71
2021/10/29 13:03:59;;;;;;;10.68;5.15;;;;;;;;;;4992058;28;20129;-72
2021/10/29 13:06:30;;;;;;;13.15;6.85;;;;;;;;;;4996960;28;20045;-72
2021/10/29 13:08:56;;;;;;;14.80;8.65;;;;;;;;;;5000565;28;20036;-72
2021/10/29 13:11:24;;;;;;;12.93;8.57;;;;;;;;;;4997365;28;20077;-72
2021/10/29 13:14:00;;;;;;;14.35;9.75;;;;;;;;;;4998078;28;20026;-72
2021/10/29 13:16:28;;;;;;;15.88;9.52;;;;;;;;;;4996390;28;20030;-72
2021/10/29 13:34:21;;;;;;;17.13;9.57;;;;;;;;;;4996023;28;20039;-72
2021/10/29 13:51:28;;;;;;;10.50;6.50;;;;;;;;;;5006566;28;20036;-72
2021/10/29 13:54:07;;;;;;;11.38;5.53;;;;;;;;;;5003154;28;20430;-72
2021/10/29 14:31:53;;;;;;;10.55;6.18;;;;;;;;;;5002675;28;20723;-72
2021/10/29 14:34:26;;;;;;;12.88;7.70;;;;;;;;;;5003219;28;20109;-71
2021/10/29 14:39:28;;;;;;;15.15;7.70;;;;;;;;;;5011716;28;20038;-72
2021/10/29 14:44:54;;;;;;;;;;;;;;;;;;5000268;28;20038;-72
2021/10/29 14:47:25;;;;;;;12.27;7.25;;;;;;;;;;4999152;28;20371;-72
2021/10/29 14:52:54;;;;;;;14.65;6.07;;;;;;;;;;4994375;28;20153;-71
2021/10/29 15:28:37;;;;;;;15.00;3.92;;;;;;;;;;4999547;28;20042;-72
2021/10/29 15:31:37;;;;;;;12.05;5.38;;;;;;;;;;4995770;28;20124;-72
2021/10/29 15:44:36;;;;;;;13.00;5.10;;;;;;;;;;4997820;28;20045;-72
2021/10/29 15:47:06;;;;;;;13.07;5.72;;;;;;;;;;5000448;28;20130;-71
2021/10/29 15:52:23;;;;;;;12.75;4.82;;;;;;;;;;5000726;28;20042;-71
2021/10/29 15:54:59;;;;;;;12.95;4.85;;;;;;;;;;4996886;28;20141;-71
2021/10/29 15:57:28;;;;;;;9.95;3.97;;;;;;;;;;4999124;28;20057;-72
2021/10/29 16:00:24;;;;;;;7.30;3.22;;;;;;;;;;5005943;28;20030;-72
2021/10/29 16:03:04;;;;;;;8.93;4.50;;;;;;;;;;5002075;28;20045;-72
2021/10/29 16:19:13;;;;;;;12.77;5.78;;;;;;;;;;4997974;28;20096;-72
2021/10/29 16:21:39;;;;;;;16.52;6.68;;;;;;;;;;5000881;28;20066;-72
2021/10/29 16:24:05;;;;;;;16.73;9.05;;;;;;;;;;5000978;28;20034;-72
2021/10/29 16:26:33;;;;;;;19.08;8.43;;;;;;;;;;5003644;28;20088;-71
2021/10/29 16:29:00;;;;;;;13.45;7.25;;;;;;;;;;5004080;28;20030;-72
2021/10/29 16:31:27;;;;;;;16.70;8.35;;;;;;;;;;5001020;28;20045;-71
2021/10/29 16:33:53;;;;;;;15.48;9.23;;;;;;;;;;5002662;28;20088;-71
2021/10/29 16:36:19;;;;;;;15.75;8.15;;;;;;;;;;5000956;28;20832;-72
2021/10/29 16:38:45;;;;;;;24.77;10.75;;;;;;;;;;4999056;28;20035;-72
2021/10/29 16:41:11;;;;;;;14.18;8.70;;;;;;;;;;5005654;28;20080;-71
2021/10/29 16:43:39;;;;;;;14.43;8.88;;;;;;;;;;4999578;28;20038;-72
2021/10/29 16:46:05;;;;;;;14.60;5.68;;;;;;;;;;5004430;28;20384;-72
2021/10/29 16:48:31;;;;;;;14.18;4.63;;;;;;;;;;4999127;28;20822;-72
2021/10/29 16:50:57;;;;;;;13.85;4.68;;;;;;;;;;4999979;28;20092;-72
2021/10/29 16:53:23;;;;;;;10.25;4.50;;;;;;;;;;4985580;28;20675;-72
2021/10/29 16:55:49;;;;;;;14.07;6.13;;;;;;;;;;4997619;28;20034;-72
2021/10/29 16:58:16;;;;;;;16.25;10.20;;;;;;;;;;5000965;28;20037;-72
2021/10/29 17:00:42;;;;;;;26.83;15.23;;;;;;;;;;4998056;28;20034;-72
2021/10/29 17:03:08;;;;;;;26.25;14.93;;;;;;;;;;5000468;28;20110;-72
2021/10/29 17:05:35;;;;;;;24.00;13.70;;;;;;;;;;4997006;28;20121;-72
2021/10/29 17:08:01;;;;;;;38.05;22.98;;;;;;;;;;5002840;28;20033;-72
2021/10/29 17:10:28;;;;;;;43.42;22.35;;;;;;;;;;4997181;28;20274;-72
2021/10/29 17:12:54;;;;;;;39.40;21.98;;;;;;;;;;4991423;28;20050;-71
2021/10/29 17:15:20;;;;;;;28.90;18.17;;;;;;;;;;4999133;28;20033;-72
2021/10/29 17:17:47;;;;;;;30.63;16.25;;;;;;;;;;5000879;28;20038;-71
2021/10/29 17:20:15;;;;;;;25.38;16.38;;;;;;;;;;5001987;28;20026;-72
2021/10/29 17:22:41;;;;;;;24.73;13.85;;;;;;;;;;4981495;28;20046;-71
2021/10/29 17:25:08;;;;;;;30.00;15.00;;;;;;;;;;5002816;28;20038;-72
2021/10/29 17:27:35;;;;;;;21.15;13.57;;;;;;;;;;4999088;28;20056;-71
2021/10/29 17:30:01;;;;;;;24.50;14.55;;;;;;;;;;4999327;28;20035;-71
2021/10/29 17:32:27;;;;;;;19.58;11.88;;;;;;;;;;5003021;28;20060;-72
2021/10/29 17:34:53;;;;;;;16.83;10.45;;;;;;;;;;4995316;28;20029;-71
2021/10/29 17:37:19;;;;;;;16.63;8.77;;;;;;;;;;4995484;28;20073;-71
2021/10/29 17:39:45;;;;;;;15.93;8.13;;;;;;;;;;4997049;28;20064;-71
2021/10/29 17:42:12;;;;;;;16.30;8.40;;;;;;;;;;5001348;28;20053;-71
2021/10/29 17:44:39;;;;;;;21.13;13.13;;;;;;;;;;5003128;28;20061;-72
2021/10/29 17:47:06;;;;;;;20.55;11.80;;;;;;;;;;5001462;28;20045;-71
2021/10/29 17:49:32;;;;;;;21.70;11.60;;;;;;;;;;4997303;28;20392;-72
2021/10/29 17:52:02;;;;;;;30.27;19.48;;;;;;;;;;4998069;28;20045;-72
2021/10/29 17:54:30;;;;;;;36.33;21.40;;;;;;;;;;5006150;28;20711;-71
2021/10/29 17:56:57;;;;;;;31.23;18.75;;;;;;;;;;5000475;28;20049;-71
2021/10/29 17:59:24;;;;;;;30.27;16.83;;;;;;;;;;5001803;28;20026;-72
2021/10/29 18:01:50;;;;;;;29.67;19.38;;;;;;;;;;5001071;28;20045;-72
2021/10/29 18:04:16;;;;;;;29.98;17.42;;;;;;;;;;5001460;28;20053;-71
2021/10/29 18:06:42;;;;;;;30.40;17.58;;;;;;;;;;4994858;28;20066;-71
2021/10/29 18:09:09;;;;;;;30.85;17.50;;;;;;;;;;4999357;28;20387;-72
2021/10/29 18:11:36;;;;;;;23.55;15.48;;;;;;;;;;4999510;28;20026;-72
2021/10/29 18:14:03;;;;;;;41.17;19.85;;;;;;;;;;5003289;28;20029;-71
2021/10/29 18:16:30;;;;;;;35.92;18.25;;;;;;;;;;4995406;28;20080;-72
2021/10/29 18:18:57;;;;;;;27.63;15.88;;;;;;;;;;4998828;28;20038;-72
2021/10/29 18:21:24;;;;;;;22.85;13.85;;;;;;;;;;4999357;28;20022;-71
2021/10/29 18:23:54;;;;;;;25.48;14.18;;;;;;;;;;4998754;28;20088;-71
2021/10/29 18:26:21;;;;;;;21.63;13.05;;;;;;;;;;4995310;28;20072;-72
2021/10/29 18:28:49;;;;;;;21.15;12.20;;;;;;;;;;5000171;28;20057;-72
2021/10/29 18:31:15;;;;;;;20.77;12.45;;;;;;;;;;5002330;28;20032;-72
2021/10/29 18:33:41;;;;;;;21.20;11.75;;;;;;;;;;5000595;28;20030;-71
2021/10/29 18:36:07;;;;;;;24.75;13.52;;;;;;;;;;5004287;28;20037;-71
2021/10/29 18:38:33;;;;;;;27.60;14.45;;;;;;;;;;4996875;28;20041;-71
2021/10/29 18:40:59;;;;;;;30.40;15.15;;;;;;;;;;5001811;28;20026;-72
2021/10/29 18:43:25;;;;;;;40.30;18.63;;;;;;;;;;5003058;28;20755;-72
2021/10/29 18:45:51;;;;;;;40.03;22.02;;;;;;;;;;5001710;28;20185;-71
2021/10/29 18:48:17;;;;;;;51.20;30.90;;;;;;;;;;5009312;28;20499;-72
2021/10/29 18:50:44;;;;;;;43.70;26.58;;;;;;;;;;4988892;28;20044;-72
2021/10/29 18:53:10;;;;;;;42.92;24.15;;;;;;;;;;5000153;28;20037;-72
2021/10/29 18:55:36;;;;;;;34.80;19.88;;;;;;;;;;4993761;28;20039;-72
2021/10/29 18:58:02;;;;;;;40.65;24.63;;;;;;;;;;5004413;28;20089;-71
2021/10/29 19:00:28;;;;;;;35.35;21.70;;;;;;;;;;5010321;28;20034;-72
2021/10/29 19:02:54;;;;;;;33.05;18.67;;;;;;;;;;5001203;28;20054;-71
2021/10/29 19:05:20;;;;;;;30.05;17.55;;;;;;;;;;5000709;28;20034;-72
2021/10/29 19:07:46;;;;;;;30.02;17.33;;;;;;;;;;5005783;28;20033;-71
2021/10/29 19:10:12;;;;;;;26.90;15.90;;;;;;;;;;5000677;28;20025;-72
2021/10/29 19:12:38;;;;;;;29.90;15.20;;;;;;;;;;4999841;28;20124;-72
2021/10/29 19:15:06;;;;;;;30.65;17.27;;;;;;;;;;4999661;28;20065;-71